Terminal Aerodrome Forecast
Issued by NWS

Home | Current Version | Previous Version | Graphics & Text | Print | Product List | Glossary On
Versions: 1 2 3 4 5 6 7 8 9 10 11 12 13 14 15
009
FTUS43 KBIS 162330
TAFDIK
TAF
KDIK 162330Z 1700/1724 28010KT P6SM SKC
     FM170300 23007KT P6SM SKC
     FM171400 25013KT P6SM SKC
     FM171900 25017G24KT P6SM SKC=

USA.gov is the U.S. government's official web portal to all federal, state and local government web resources and services.